createdAt,value
2019-03-18T00:00:30.733Z,99671.34
2019-03-18T00:02:59.046Z,99669.24
2019-03-18T00:05:27.724Z,99682.01
2019-03-18T00:07:56.066Z,99674.93
2019-03-18T00:10:24.656Z,99676.37
2019-03-18T00:12:53.324Z,99684.30
2019-03-18T00:15:21.605Z,99684.31
2019-03-18T00:17:49.892Z,99687.75
2019-03-18T00:20:18.123Z,99695.77
2019-03-18T00:22:46.301Z,99695.75
2019-03-18T00:25:14.725Z,99698.06
2019-03-18T00:27:42.975Z,99704.63
2019-03-18T00:30:13.148Z,99704.09
2019-03-18T00:32:41.412Z,99707.19
2019-03-18T00:35:10.047Z,99711.57
2019-03-18T00:37:38.193Z,99708.45
2019-03-18T00:40:07.230Z,99724.27
2019-03-18T00:42:35.402Z,99725.57
2019-03-18T00:45:14.169Z,99707.91
2019-03-18T00:47:34.001Z,99712.34
2019-03-18T00:50:02.410Z,99714.98
2019-03-18T00:52:30.611Z,99733.86
2019-03-18T00:54:58.994Z,99727.25
2019-03-18T00:57:27.186Z,99723.78
2019-03-18T00:59:55.807Z,99712.74
2019-03-18T01:02:24.391Z,99715.33
2019-03-18T01:04:52.554Z,99718.50
2019-03-18T01:07:20.841Z,99715.06
2019-03-18T01:09:49.326Z,99722.95
2019-03-18T01:12:17.536Z,99740.54
2019-03-18T01:14:46.108Z,99735.06
2019-03-18T01:17:14.256Z,99736.42
2019-03-18T01:19:42.527Z,99729.34
2019-03-18T01:22:10.765Z,99736.48
2019-03-18T01:24:39.139Z,99748.20
2019-03-18T01:27:07.342Z,99742.58
2019-03-18T01:29:35.486Z,99738.94
2019-03-18T01:32:03.594Z,99737.50
2019-03-18T01:34:31.782Z,99739.73
2019-03-18T01:37:00.041Z,99737.49
2019-03-18T01:39:28.306Z,99736.17
2019-03-18T01:41:56.494Z,99724.79
2019-03-18T01:44:24.618Z,99737.97
2019-03-18T01:46:52.855Z,99724.38
2019-03-18T01:49:21.225Z,99726.50
2019-03-18T01:51:49.357Z,99723.00
2019-03-18T01:54:17.488Z,99712.89
2019-03-18T01:56:45.759Z,99724.86
2019-03-18T01:59:13.909Z,99716.38
2019-03-18T02:01:42.245Z,99718.58
2019-03-18T02:04:10.415Z,99717.66
2019-03-18T02:06:38.541Z,99715.94
2019-03-18T02:09:07.482Z,99721.20
2019-03-18T02:11:35.636Z,99718.17
2019-03-18T02:14:03.770Z,99725.19
2019-03-18T02:16:31.974Z,99717.31
2019-03-18T02:19:00.414Z,99726.92
2019-03-18T02:21:28.624Z,99719.44
2019-03-18T02:23:57.010Z,99732.32
2019-03-18T02:26:25.327Z,99734.92
2019-03-18T02:28:53.589Z,99731.00
2019-03-18T02:31:21.817Z,99730.02
2019-03-18T02:33:50.653Z,99472.50
2019-03-18T02:36:19.131Z,99726.20
2019-03-18T02:38:47.245Z,99733.31
2019-03-18T02:41:15.813Z,99736.78
2019-03-18T02:43:44.131Z,99724.06
2019-03-18T02:46:12.334Z,99724.98
2019-03-18T02:48:40.507Z,99719.75
2019-03-18T02:51:08.677Z,99722.87
2019-03-18T02:53:36.814Z,99730.88
2019-03-18T02:56:05.011Z,99719.70
2019-03-18T02:58:33.205Z,99719.37
2019-03-18T03:01:01.575Z,99728.63
2019-03-18T03:03:29.803Z,99719.28
2019-03-18T03:05:57.957Z,99728.02
2019-03-18T03:08:26.224Z,99725.73
2019-03-18T03:10:54.381Z,99722.60
2019-03-18T03:13:22.650Z,99715.94
2019-03-18T03:15:50.980Z,99717.70
2019-03-18T03:18:19.157Z,99727.03
2019-03-18T03:20:47.605Z,99720.37
2019-03-18T03:23:15.853Z,99719.43
2019-03-18T03:25:44.143Z,99733.11
2019-03-18T03:28:12.250Z,99734.84
2019-03-18T03:30:40.438Z,99744.09
2019-03-18T03:33:08.805Z,99745.50
2019-03-18T03:35:37.243Z,99749.47
2019-03-18T03:38:05.622Z,99748.59
2019-03-18T03:40:33.957Z,99756.09
2019-03-18T03:43:02.051Z,99760.65
2019-03-18T03:45:30.336Z,99768.58
2019-03-18T03:47:58.492Z,99772.08
2019-03-18T03:50:26.738Z,99769.09
2019-03-18T03:52:54.905Z,99784.38
2019-03-18T03:55:23.140Z,99797.41
2019-03-18T03:57:51.411Z,99791.19
2019-03-18T04:00:19.575Z,99788.08
2019-03-18T04:02:47.742Z,99794.41
2019-03-18T04:05:16.030Z,99796.38
2019-03-18T04:07:44.501Z,99796.44
2019-03-18T04:10:12.785Z,99807.51
2019-03-18T04:12:41.002Z,99805.68
2019-03-18T04:15:09.266Z,99807.31
2019-03-18T04:17:37.594Z,99809.19
2019-03-18T04:20:06.535Z,99807.88
2019-03-18T04:22:34.773Z,99805.95
2019-03-18T04:25:03.212Z,99808.22
2019-03-18T04:27:31.511Z,99810.55
2019-03-18T04:29:59.751Z,99812.73
2019-03-18T04:32:27.963Z,99809.75
2019-03-18T04:34:56.258Z,99824.74
2019-03-18T04:37:24.577Z,99824.17
2019-03-18T04:39:52.727Z,99825.61
2019-03-18T04:42:21.004Z,99830.33
2019-03-18T04:44:49.411Z,99824.88
2019-03-18T04:47:17.526Z,99827.59
2019-03-18T04:49:45.716Z,99827.23
2019-03-18T04:52:13.914Z,99838.69
2019-03-18T04:54:42.280Z,99848.98
2019-03-18T04:57:10.554Z,99840.25
2019-03-18T04:59:38.988Z,99847.20
2019-03-18T05:02:07.234Z,99847.31
2019-03-18T05:04:35.624Z,99855.02
2019-03-18T05:07:03.829Z,99855.08
2019-03-18T05:09:31.985Z,99863.02
2019-03-18T05:12:00.302Z,99860.84
2019-03-18T05:14:28.452Z,99860.77
2019-03-18T05:16:56.610Z,99874.80
2019-03-18T05:19:24.879Z,99866.48
2019-03-18T05:21:53.123Z,99868.14
2019-03-18T05:24:21.363Z,99869.52
2019-03-18T05:26:49.665Z,99876.94
2019-03-18T05:29:17.826Z,99880.50
2019-03-18T05:31:46.219Z,99879.98
2019-03-18T05:34:14.443Z,99881.77
2019-03-18T05:36:42.625Z,99887.00
2019-03-18T05:39:10.799Z,99891.44
2019-03-18T05:41:38.948Z,99897.12
2019-03-18T05:44:08.176Z,99899.67
2019-03-18T05:46:36.407Z,99903.73
2019-03-18T05:49:04.737Z,99908.59
2019-03-18T05:51:35.995Z,99908.74
2019-03-18T05:54:04.655Z,99910.77
2019-03-18T05:56:33.121Z,99906.05
2019-03-18T05:59:12.692Z,99903.52
2019-03-18T06:01:43.372Z,99907.88
2019-03-18T06:04:14.287Z,99914.05
2019-03-18T06:06:42.509Z,99918.86
2019-03-18T06:09:10.746Z,99923.25
2019-03-18T06:11:38.980Z,99931.58
2019-03-18T06:14:07.244Z,99936.42
2019-03-18T06:16:35.426Z,99939.48
2019-03-18T06:19:03.758Z,99946.49
2019-03-18T06:21:32.286Z,99953.00
2019-03-18T06:24:00.675Z,99955.25
2019-03-18T06:26:28.923Z,99950.37
2019-03-18T06:28:57.048Z,99954.33
2019-03-18T06:31:25.399Z,99962.83
2019-03-18T06:33:53.557Z,99967.39
2019-03-18T06:36:21.767Z,99967.50
2019-03-18T06:38:49.947Z,99972.74
2019-03-18T06:41:18.061Z,99979.66
2019-03-18T06:43:46.287Z,99984.95
2019-03-18T06:46:14.509Z,99983.22
2019-03-18T06:48:42.798Z,99999.91
2019-03-18T06:51:10.921Z,99997.28
2019-03-18T06:53:40.277Z,100002.16
2019-03-18T06:56:08.567Z,100003.44
2019-03-18T06:58:36.907Z,100006.95
2019-03-18T07:01:05.069Z,100007.05
2019-03-18T07:03:33.207Z,100010.85
2019-03-18T07:06:01.501Z,100011.31
2019-03-18T07:08:29.704Z,100023.59
2019-03-18T07:10:57.890Z,100027.91
2019-03-18T07:13:26.038Z,100020.36
2019-03-18T07:15:54.172Z,100034.41
2019-03-18T07:18:22.457Z,100036.09
2019-03-18T07:20:50.588Z,100036.09
2019-03-18T07:23:18.760Z,100044.78
2019-03-18T07:25:47.025Z,100043.27
2019-03-18T07:28:18.001Z,100046.38
2019-03-18T07:30:45.240Z,100067.91
2019-03-18T07:33:13.664Z,100057.83
2019-03-18T07:35:41.807Z,100053.70
2019-03-18T07:38:10.101Z,100066.45
2019-03-18T07:40:38.469Z,100070.94
2019-03-18T07:43:06.664Z,100078.52
2019-03-18T07:45:35.171Z,100089.52
2019-03-18T07:48:03.370Z,100094.89
2019-03-18T07:50:31.675Z,100097.41
2019-03-18T07:52:59.928Z,100102.22
2019-03-18T07:55:28.167Z,100108.72
2019-03-18T07:57:56.407Z,100107.04
2019-03-18T08:00:24.659Z,100108.08
2019-03-18T08:02:52.881Z,100110.73
2019-03-18T08:05:21.129Z,100104.33
2019-03-18T08:07:49.416Z,100107.77
2019-03-18T08:10:17.652Z,100113.33
2019-03-18T08:12:46.003Z,100116.71
2019-03-18T08:15:14.454Z,100116.71
2019-03-18T08:17:42.719Z,100109.78
2019-03-18T08:20:11.221Z,100109.03
2019-03-18T08:22:39.441Z,100116.80
2019-03-18T08:25:07.878Z,100116.42
2019-03-18T08:27:36.123Z,100117.88
2019-03-18T08:30:04.697Z,100127.80
2019-03-18T08:32:32.916Z,100126.15
2019-03-18T08:35:01.086Z,100132.20
2019-03-18T08:37:29.275Z,100136.68
2019-03-18T08:39:57.506Z,100136.63
2019-03-18T08:42:25.792Z,100141.06
2019-03-18T08:44:53.916Z,100132.33
2019-03-18T08:47:22.214Z,100151.77
2019-03-18T08:49:50.426Z,100153.63
2019-03-18T08:52:18.662Z,100157.02
2019-03-18T08:54:46.839Z,100157.17
2019-03-18T08:57:15.058Z,100157.15
2019-03-18T08:59:43.268Z,100161.63
2019-03-18T09:02:11.417Z,100167.48
2019-03-18T09:04:39.851Z,100168.03
2019-03-18T09:07:08.013Z,100171.80
2019-03-18T09:09:36.333Z,100169.41
2019-03-18T09:12:04.770Z,100180.98
2019-03-18T09:14:32.992Z,100160.78
2019-03-18T09:17:01.146Z,100169.67
2019-03-18T09:19:29.272Z,100188.93
2019-03-18T09:21:57.601Z,100180.91
2019-03-18T09:24:25.971Z,100185.61
2019-03-18T09:27:02.243Z,100196.86
2019-03-18T09:29:24.018Z,100199.59
2019-03-18T09:31:52.590Z,100200.75
2019-03-18T09:34:20.926Z,100201.11
2019-03-18T09:36:49.285Z,100207.60
2019-03-18T09:39:17.665Z,100202.92
2019-03-18T09:41:45.829Z,100202.16
2019-03-18T09:44:14.010Z,100199.73
2019-03-18T09:46:42.266Z,100196.78
2019-03-18T09:49:20.900Z,100203.82
2019-03-18T09:51:40.548Z,100210.58
2019-03-18T09:54:08.830Z,100219.30
2019-03-18T09:56:37.076Z,100211.41
2019-03-18T09:59:05.202Z,100210.25
2019-03-18T10:01:33.394Z,100212.36
2019-03-18T10:04:01.682Z,100208.65
2019-03-18T10:06:29.859Z,100230.35
2019-03-18T10:08:58.250Z,100231.68
2019-03-18T10:11:26.411Z,100230.87
2019-03-18T10:13:54.610Z,100232.95
2019-03-18T10:16:22.943Z,100220.58
2019-03-18T10:18:51.211Z,100222.12
2019-03-18T10:21:19.337Z,100216.41
2019-03-18T10:23:47.664Z,100223.69
2019-03-18T10:26:15.941Z,100218.61
2019-03-18T10:28:44.038Z,100217.63
2019-03-18T10:31:12.292Z,100215.83
2019-03-18T10:33:40.421Z,100237.06
2019-03-18T10:36:08.719Z,100234.50
2019-03-18T10:38:36.847Z,100232.66
2019-03-18T10:41:05.217Z,100229.94
2019-03-18T10:43:33.443Z,100239.80
2019-03-18T10:46:01.609Z,100245.22
2019-03-18T10:48:29.759Z,100264.34
2019-03-18T10:50:57.905Z,100264.81
2019-03-18T10:53:26.121Z,100270.20
2019-03-18T10:55:54.324Z,100266.50
2019-03-18T10:58:22.547Z,100282.91
2019-03-18T11:00:50.685Z,100277.14
2019-03-18T11:03:18.918Z,100274.61
2019-03-18T11:05:47.168Z,100273.51
2019-03-18T11:08:15.403Z,100272.31
2019-03-18T11:10:43.544Z,100257.47
2019-03-18T11:13:11.800Z,100268.34
2019-03-18T11:15:39.971Z,100274.31
2019-03-18T11:18:08.202Z,100263.92
2019-03-18T11:20:36.683Z,100279.19
2019-03-18T11:23:04.922Z,100275.91
2019-03-18T11:25:33.210Z,100034.63
2019-03-18T11:28:01.660Z,100294.53
2019-03-18T11:30:29.966Z,100289.26
2019-03-18T11:32:58.378Z,100298.43
2019-03-18T11:35:26.596Z,100303.80
2019-03-18T11:37:54.864Z,100295.91
2019-03-18T11:40:25.157Z,100286.08
2019-03-18T11:42:53.355Z,100291.14
2019-03-18T11:45:21.495Z,100301.30
2019-03-18T11:47:49.866Z,100302.44
2019-03-18T11:50:18.063Z,100297.95
2019-03-18T11:52:46.457Z,100302.42
2019-03-18T11:55:15.179Z,100302.27
2019-03-18T11:57:43.391Z,100299.55
2019-03-18T12:00:13.362Z,100301.84
2019-03-18T12:02:41.595Z,100316.44
2019-03-18T12:05:12.197Z,100309.64
2019-03-18T12:07:39.541Z,100319.73
2019-03-18T12:10:09.614Z,100316.00
2019-03-18T12:12:37.962Z,100323.02
2019-03-18T12:15:07.044Z,100328.86
2019-03-18T12:17:35.418Z,100340.66
2019-03-18T12:20:03.614Z,100347.39
2019-03-18T12:22:31.796Z,100361.58
2019-03-18T12:25:00.065Z,100355.02
2019-03-18T12:27:28.400Z,100350.45
2019-03-18T12:29:56.826Z,100371.09
2019-03-18T12:32:25.144Z,100350.98
2019-03-18T12:34:53.346Z,99879.82
2019-03-18T12:37:21.630Z,100364.07
2019-03-18T12:39:49.834Z,100360.26
2019-03-18T12:42:17.993Z,100368.87
2019-03-18T12:44:46.292Z,100373.01
2019-03-18T12:47:14.457Z,100368.77
2019-03-18T12:49:42.944Z,100359.41
2019-03-18T12:52:11.247Z,100367.67
2019-03-18T12:54:39.495Z,100362.78
2019-03-18T12:57:07.981Z,100376.66
2019-03-18T12:59:36.357Z,100357.52
2019-03-18T13:02:04.628Z,100355.59
2019-03-18T13:04:34.144Z,100355.06
2019-03-18T13:07:02.602Z,100354.80
2019-03-18T13:09:30.955Z,100351.30
2019-03-18T13:11:59.269Z,100337.67
2019-03-18T13:14:27.734Z,100346.09
2019-03-18T13:16:56.049Z,100337.77
2019-03-18T13:19:24.266Z,100338.52
2019-03-18T13:21:52.539Z,100341.43
2019-03-18T13:24:20.919Z,100343.56
2019-03-18T13:26:49.194Z,100342.83
2019-03-18T13:29:17.899Z,100361.17
2019-03-18T13:31:46.233Z,100374.01
2019-03-18T13:34:14.437Z,100359.53
2019-03-18T13:36:42.593Z,100351.28
2019-03-18T13:39:10.867Z,100366.98
2019-03-18T13:41:39.122Z,100364.10
2019-03-18T13:44:07.467Z,100376.41
2019-03-18T13:46:35.711Z,100370.58
2019-03-18T13:49:03.913Z,100385.81
2019-03-18T13:51:32.190Z,100381.34
2019-03-18T13:54:00.356Z,100374.33
2019-03-18T13:56:28.610Z,100371.87
2019-03-18T13:58:56.957Z,100373.11
2019-03-18T14:01:25.304Z,100376.71
2019-03-18T14:03:53.624Z,100383.14
2019-03-18T14:06:21.818Z,100394.16
2019-03-18T14:08:50.103Z,100413.91
2019-03-18T14:11:18.492Z,100417.91
2019-03-18T14:13:46.655Z,100434.56
2019-03-18T14:16:14.928Z,100429.55
2019-03-18T14:18:45.999Z,100430.24
2019-03-18T14:21:14.180Z,100450.52
2019-03-18T14:23:42.799Z,100462.64
2019-03-18T14:26:11.126Z,100460.87
2019-03-18T14:28:39.446Z,100461.52
2019-03-18T14:31:07.795Z,100460.98
2019-03-18T14:33:36.046Z,100458.91
2019-03-18T14:36:04.385Z,100465.17
2019-03-18T14:38:32.710Z,100474.95
2019-03-18T14:41:00.971Z,100475.02
2019-03-18T14:43:30.765Z,100484.73
2019-03-18T14:45:59.170Z,100468.47
2019-03-18T14:48:27.423Z,100474.20
2019-03-18T14:50:55.701Z,100473.59
2019-03-18T14:53:24.059Z,100477.59
2019-03-18T14:55:52.441Z,100478.36
2019-03-18T14:58:20.632Z,100480.15
2019-03-18T15:00:48.921Z,100483.53
2019-03-18T15:03:17.174Z,100480.11
2019-03-18T15:05:45.479Z,100489.11
2019-03-18T15:08:13.906Z,100482.91
2019-03-18T15:10:42.614Z,100484.12
2019-03-18T15:13:10.906Z,100481.96
2019-03-18T15:15:39.752Z,100490.98
2019-03-18T15:18:08.025Z,100497.87
2019-03-18T15:20:36.988Z,100494.23
2019-03-18T15:23:05.243Z,100500.45
2019-03-18T15:25:33.515Z,100507.72
2019-03-18T15:28:02.235Z,100499.55
2019-03-18T15:30:30.829Z,100502.44
2019-03-18T15:32:59.679Z,100506.41
2019-03-18T15:35:27.922Z,100499.98
2019-03-18T15:37:56.336Z,100501.06
2019-03-18T15:40:24.515Z,100504.92
2019-03-18T15:42:52.785Z,100501.89
2019-03-18T15:45:21.111Z,100497.28
2019-03-18T15:47:49.395Z,100499.80
2019-03-18T15:50:17.974Z,100493.02
2019-03-18T15:52:46.260Z,100499.13
2019-03-18T15:55:14.581Z,100501.14
2019-03-18T15:57:43.274Z,100503.28
2019-03-18T16:00:13.512Z,100515.52
2019-03-18T16:02:41.949Z,100525.37
2019-03-18T16:05:10.661Z,100518.66
2019-03-18T16:07:39.069Z,100527.27
2019-03-18T16:10:07.909Z,100529.81
2019-03-18T16:12:36.087Z,100553.73
2019-03-18T16:15:04.405Z,100605.06
2019-03-18T16:17:32.639Z,100641.44
2019-03-18T16:20:00.936Z,100649.29
2019-03-18T16:22:29.226Z,100649.48
2019-03-18T16:24:57.577Z,100630.98
2019-03-18T16:27:25.955Z,100597.55
2019-03-18T16:29:54.308Z,100588.94
2019-03-18T16:32:22.513Z,100568.56
2019-03-18T16:34:50.925Z,100570.69
2019-03-18T16:37:19.566Z,100578.54
2019-03-18T16:39:48.225Z,100579.30
2019-03-18T16:42:17.504Z,100579.30
2019-03-18T16:44:45.824Z,100580.78
2019-03-18T16:47:14.185Z,100585.73
2019-03-18T16:49:42.667Z,100588.11
2019-03-18T16:52:11.065Z,100593.92
2019-03-18T16:54:39.273Z,100601.92
2019-03-18T16:57:07.473Z,100607.42
2019-03-18T16:59:35.698Z,100614.75
2019-03-18T17:02:03.895Z,100627.58
2019-03-18T17:04:32.239Z,100654.42
2019-03-18T17:07:00.642Z,100668.05
2019-03-18T17:09:29.096Z,100654.05
2019-03-18T17:11:57.321Z,100642.04
2019-03-18T17:14:25.697Z,100647.73
2019-03-18T17:16:54.085Z,100645.27
2019-03-18T17:19:22.529Z,100639.32
2019-03-18T17:21:50.965Z,100644.36
2019-03-18T17:24:19.258Z,100648.09
2019-03-18T17:26:47.457Z,100648.94
2019-03-18T17:29:16.092Z,100650.62
2019-03-18T17:31:44.742Z,100655.07
2019-03-18T17:34:13.122Z,100655.53
2019-03-18T17:36:41.512Z,100665.30
2019-03-18T17:39:10.124Z,100658.88
2019-03-18T17:41:38.362Z,100671.84
2019-03-18T17:44:06.604Z,100675.20
2019-03-18T17:46:35.304Z,100681.42
2019-03-18T17:49:03.832Z,100687.36
2019-03-18T17:51:33.403Z,100692.92
2019-03-18T17:54:01.778Z,100698.72
2019-03-18T17:56:30.848Z,100694.62
2019-03-18T17:58:59.359Z,100697.23
2019-03-18T18:01:27.621Z,100698.69
2019-03-18T18:03:56.200Z,100698.42
2019-03-18T18:06:24.490Z,100701.23
2019-03-18T18:08:53.155Z,100714.98
2019-03-18T18:11:21.612Z,100712.48
2019-03-18T18:13:49.902Z,100713.48
2019-03-18T18:16:18.143Z,100714.91
2019-03-18T18:18:46.751Z,100715.03
2019-03-18T18:21:15.704Z,100716.81
2019-03-18T18:23:44.121Z,100717.88
2019-03-18T18:26:12.290Z,100728.19
2019-03-18T18:28:40.751Z,100737.94
2019-03-18T18:31:09.290Z,100750.86
2019-03-18T18:33:37.535Z,100757.47
2019-03-18T18:36:05.759Z,100765.91
2019-03-18T18:38:34.081Z,100763.40
2019-03-18T18:41:02.518Z,100763.52
2019-03-18T18:43:30.890Z,100767.45
2019-03-18T18:45:59.449Z,100771.06
2019-03-18T18:48:27.915Z,100774.77
2019-03-18T18:50:56.409Z,100777.51
2019-03-18T18:53:26.559Z,100774.48
2019-03-18T18:55:55.040Z,100772.20
2019-03-18T18:58:23.931Z,100773.58
2019-03-18T19:00:52.298Z,100777.00
2019-03-18T19:03:20.760Z,100776.72
2019-03-18T19:05:49.222Z,100777.15
2019-03-18T19:08:17.659Z,100781.55
2019-03-18T19:10:46.118Z,100793.04
2019-03-18T19:13:14.588Z,100795.23
2019-03-18T19:15:43.229Z,100794.77
2019-03-18T19:18:11.373Z,100795.20
2019-03-18T19:20:40.777Z,100804.07
2019-03-18T19:23:09.591Z,100801.86
2019-03-18T19:25:37.881Z,100801.88
2019-03-18T19:28:07.214Z,100809.36
2019-03-18T19:30:36.219Z,100802.30
2019-03-18T19:33:06.091Z,100811.56
2019-03-18T19:35:34.706Z,100819.06
2019-03-18T19:38:03.725Z,100827.47
2019-03-18T19:40:32.927Z,100824.38
2019-03-18T19:43:01.630Z,100827.91
2019-03-18T19:45:30.446Z,100825.28
2019-03-18T19:47:59.658Z,100830.55
2019-03-18T19:50:28.852Z,100827.02
2019-03-18T19:52:57.818Z,100833.66
2019-03-18T19:55:27.375Z,100836.73
2019-03-18T19:57:56.569Z,100848.20
2019-03-18T20:00:25.590Z,100849.99
2019-03-18T20:02:55.062Z,100860.56
2019-03-18T20:05:23.859Z,100858.37
2019-03-18T20:07:53.656Z,100860.58
2019-03-18T20:10:22.928Z,100859.69
2019-03-18T20:12:51.902Z,100867.19
2019-03-18T20:15:20.872Z,100871.59
2019-03-18T20:17:49.650Z,100873.38
2019-03-18T20:20:18.203Z,100879.08
2019-03-18T20:22:47.528Z,100882.62
2019-03-18T20:25:16.475Z,100881.73
2019-03-18T20:27:44.980Z,100886.52
2019-03-18T20:30:14.820Z,100889.59
2019-03-18T20:32:43.613Z,100888.22
2019-03-18T20:35:12.989Z,100896.12
2019-03-18T20:37:41.689Z,100895.41
2019-03-18T20:40:11.456Z,100905.43
2019-03-18T20:42:39.742Z,100906.73
2019-03-18T20:45:10.278Z,100907.34
2019-03-18T20:47:39.337Z,100905.47
2019-03-18T20:50:09.423Z,100912.96
2019-03-18T20:52:38.533Z,100902.31
2019-03-18T20:55:07.018Z,100905.02
2019-03-18T20:57:35.753Z,100912.81
2019-03-18T21:00:05.691Z,100920.01
2019-03-18T21:02:33.883Z,100927.56
2019-03-18T21:05:02.266Z,100933.78
2019-03-18T21:07:30.731Z,100946.09
2019-03-18T21:09:59.024Z,100945.66
2019-03-18T21:12:27.451Z,100945.66
2019-03-18T21:14:56.043Z,100946.53
2019-03-18T21:17:24.474Z,100949.59
2019-03-18T21:19:53.246Z,100952.69
2019-03-18T21:22:21.968Z,100957.52
2019-03-18T21:24:50.332Z,100960.11
2019-03-18T21:27:18.886Z,100962.75
2019-03-18T21:29:47.199Z,100959.55
2019-03-18T21:32:15.657Z,100961.78
2019-03-18T21:34:43.886Z,100975.79
2019-03-18T21:37:12.336Z,100977.11
2019-03-18T21:39:40.894Z,100983.29
2019-03-18T21:42:09.249Z,100985.52
2019-03-18T21:44:37.594Z,100993.05
2019-03-18T21:47:05.997Z,100993.47
2019-03-18T21:49:34.352Z,100992.20
2019-03-18T21:52:03.028Z,100997.86
2019-03-18T21:54:34.424Z,100997.39
2019-03-18T21:57:01.494Z,100997.66
2019-03-18T21:59:29.760Z,100995.57
2019-03-18T22:01:57.904Z,100990.08
2019-03-18T22:04:26.105Z,100994.27
2019-03-18T22:06:54.335Z,101000.34
2019-03-18T22:09:22.637Z,101005.13
2019-03-18T22:11:51.110Z,101006.46
2019-03-18T22:14:19.434Z,101003.55
2019-03-18T22:16:47.645Z,101001.86
2019-03-18T22:19:15.936Z,101003.33
2019-03-18T22:21:44.234Z,101003.20
2019-03-18T22:24:12.505Z,101004.67
2019-03-18T22:26:40.736Z,101007.83
2019-03-18T22:29:08.885Z,101009.61
2019-03-18T22:31:37.118Z,101008.97
2019-03-18T22:34:05.320Z,101010.22
2019-03-18T22:36:33.566Z,101012.01
2019-03-18T22:39:01.948Z,101015.47
2019-03-18T22:41:30.334Z,101019.32
2019-03-18T22:43:58.598Z,101024.28
2019-03-18T22:46:26.836Z,101025.59
2019-03-18T22:48:54.982Z,101030.42
2019-03-18T22:51:23.342Z,101034.03
2019-03-18T22:53:51.492Z,101024.14
2019-03-18T22:56:19.665Z,101022.81
2019-03-18T22:58:47.927Z,101025.80
2019-03-18T23:01:18.947Z,101018.20
2019-03-18T23:03:47.175Z,101022.64
2019-03-18T23:06:15.505Z,101021.03
2019-03-18T23:09:04.046Z,101029.88
2019-03-18T23:11:32.491Z,101030.03
2019-03-18T23:14:00.991Z,101031.53
2019-03-18T23:16:29.155Z,101030.67
2019-03-18T23:18:57.485Z,101036.33
2019-03-18T23:21:25.719Z,101039.86
2019-03-18T23:23:53.955Z,101040.91
2019-03-18T23:26:22.392Z,101036.87
2019-03-18T23:28:50.546Z,101036.19
2019-03-18T23:31:18.693Z,101049.63
2019-03-18T23:33:46.877Z,101049.69
2019-03-18T23:36:15.146Z,101055.98
2019-03-18T23:38:43.309Z,101051.92
2019-03-18T23:41:11.434Z,101053.89
2019-03-18T23:43:39.637Z,101056.42
2019-03-18T23:46:07.834Z,101058.95
2019-03-18T23:48:36.064Z,101061.52
2019-03-18T23:51:04.253Z,101060.09
2019-03-18T23:53:32.468Z,101067.16
2019-03-18T23:56:00.642Z,101067.27
2019-03-18T23:58:28.798Z,101071.41
